createdAt,value
2023-05-14T00:02:06.943Z,51.80
2023-05-14T00:04:33.863Z,51.70
2023-05-14T00:07:00.877Z,51.60
2023-05-14T00:09:27.592Z,51.30
2023-05-14T00:11:55.437Z,51.10
2023-05-14T00:14:22.428Z,51.00
2023-05-14T00:16:49.392Z,51.10
2023-05-14T00:19:16.323Z,51.00
2023-05-14T00:21:43.173Z,51.20
2023-05-14T00:24:09.965Z,51.00
2023-05-14T00:26:36.721Z,50.80
2023-05-14T00:29:04.489Z,50.90
2023-05-14T00:31:32.288Z,50.60
2023-05-14T00:33:59.060Z,50.90
2023-05-14T00:36:25.707Z,50.70
2023-05-14T00:38:52.460Z,50.60
2023-05-14T00:41:19.177Z,50.60
2023-05-14T00:43:45.834Z,50.70
2023-05-14T00:46:12.883Z,50.60
2023-05-14T00:48:40.062Z,50.50
2023-05-14T00:58:30.036Z,50.60
2023-05-14T01:00:56.817Z,50.40
2023-05-14T01:03:23.632Z,50.40
2023-05-14T01:06:26.176Z,50.70
2023-05-14T01:09:16.133Z,51.00
2023-05-14T01:11:50.928Z,50.40
2023-05-14T01:15:05.714Z,50.40
2023-05-14T01:17:38.363Z,50.70
2023-05-14T01:20:05.855Z,50.60
2023-05-14T01:22:32.805Z,50.50
2023-05-14T01:24:59.566Z,50.60
2023-05-14T01:27:33.535Z,50.60
2023-05-14T01:30:14.399Z,50.40
2023-05-14T01:32:41.812Z,50.50
2023-05-14T01:35:10.413Z,50.70
2023-05-14T01:37:38.855Z,50.50
2023-05-14T01:40:06.396Z,50.60
2023-05-14T01:42:33.430Z,52.90
2023-05-14T01:45:00.826Z,51.10
2023-05-14T01:47:27.581Z,50.70
2023-05-14T01:49:54.264Z,50.60
2023-05-14T01:52:21.272Z,50.50
2023-05-14T01:54:48.775Z,50.50
2023-05-14T01:57:15.484Z,50.30
2023-05-14T01:59:42.117Z,50.60
2023-05-14T02:02:08.847Z,50.50
2023-05-14T02:04:35.574Z,50.50
2023-05-14T02:07:02.216Z,50.40
2023-05-14T02:09:29.298Z,50.60
2023-05-14T02:11:55.977Z,50.50
2023-05-14T02:14:22.641Z,50.60
2023-05-14T02:16:51.010Z,50.50
2023-05-14T02:19:19.929Z,50.60
2023-05-14T02:21:46.960Z,50.60
2023-05-14T02:24:13.792Z,50.50
2023-05-14T02:26:40.569Z,50.40
2023-05-14T02:29:07.234Z,50.40
2023-05-14T02:31:34.072Z,50.30
2023-05-14T02:34:04.891Z,50.60
2023-05-14T02:36:31.827Z,50.40
2023-05-14T02:38:59.984Z,50.70
2023-05-14T02:41:27.150Z,50.40
2023-05-14T02:43:54.377Z,50.70
2023-05-14T02:46:21.190Z,50.60
2023-05-14T02:48:47.893Z,50.90
2023-05-14T02:51:14.616Z,50.80
2023-05-14T02:53:43.463Z,50.60
2023-05-14T02:56:10.242Z,50.30
2023-05-14T02:58:37.059Z,50.30
2023-05-14T03:01:03.979Z,50.50
2023-05-14T03:03:31.447Z,50.40
2023-05-14T03:05:58.631Z,50.40
2023-05-14T03:08:25.759Z,50.20
2023-05-14T03:10:52.498Z,50.20
2023-05-14T03:13:20.687Z,50.10
2023-05-14T03:15:47.682Z,50.50
2023-05-14T03:18:15.096Z,50.80
2023-05-14T03:20:41.986Z,50.10
2023-05-14T03:23:08.766Z,50.20
2023-05-14T03:25:35.585Z,50.20
2023-05-14T03:28:03.517Z,50.30
2023-05-14T03:30:30.647Z,50.20
2023-05-14T03:32:57.677Z,50.30
2023-05-14T03:35:24.445Z,50.10
2023-05-14T03:37:52.848Z,50.10
2023-05-14T03:40:19.642Z,50.10
2023-05-14T03:42:46.421Z,50.40
2023-05-14T03:45:13.170Z,50.50
2023-05-14T03:47:39.937Z,50.40
2023-05-14T03:50:07.774Z,50.60
2023-05-14T03:52:34.519Z,50.40
2023-05-14T03:55:01.249Z,50.90
2023-05-14T03:57:28.910Z,50.50
2023-05-14T03:59:55.625Z,50.50
2023-05-14T04:02:22.393Z,50.50
2023-05-14T04:04:49.167Z,50.40
2023-05-14T04:07:15.998Z,50.80
2023-05-14T04:09:42.632Z,50.80
2023-05-14T04:12:09.668Z,50.70
2023-05-14T04:14:36.453Z,50.70
2023-05-14T04:17:03.733Z,50.50
2023-05-14T04:19:31.413Z,50.50
2023-05-14T04:21:58.166Z,50.60
2023-05-14T04:24:24.898Z,50.60
2023-05-14T04:26:51.657Z,50.50
2023-05-14T04:29:18.414Z,50.60
2023-05-14T04:31:45.158Z,50.40
2023-05-14T04:34:11.932Z,50.40
2023-05-14T04:36:38.613Z,50.70
2023-05-14T04:39:06.001Z,50.90
2023-05-14T04:41:33.851Z,50.70
2023-05-14T04:44:03.991Z,50.80
2023-05-14T04:46:31.104Z,51.10
2023-05-14T04:48:57.943Z,51.00
2023-05-14T04:51:24.793Z,51.10
2023-05-14T04:53:51.857Z,51.20
2023-05-14T04:56:18.542Z,51.40
2023-05-14T04:58:45.189Z,51.40
2023-05-14T05:01:13.093Z,51.60
2023-05-14T05:03:39.846Z,51.70
2023-05-14T05:06:06.828Z,51.90
2023-05-14T05:08:33.769Z,52.00
2023-05-14T05:11:00.571Z,52.10
2023-05-14T05:13:27.279Z,52.20
2023-05-14T05:15:54.121Z,52.40
2023-05-14T05:18:21.162Z,52.70
2023-05-14T05:20:47.973Z,52.50
2023-05-14T05:23:14.728Z,52.70
2023-05-14T05:25:41.438Z,52.90
2023-05-14T05:28:08.156Z,52.90
2023-05-14T05:30:34.884Z,53.30
2023-05-14T05:33:01.956Z,53.30
2023-05-14T05:35:29.061Z,53.50
2023-05-14T05:37:55.814Z,53.50
2023-05-14T05:40:22.907Z,53.70
2023-05-14T05:42:49.721Z,53.80
2023-05-14T05:45:16.385Z,54.20
2023-05-14T05:47:43.157Z,54.10
2023-05-14T05:50:11.000Z,54.30
2023-05-14T05:52:38.117Z,54.50
2023-05-14T05:55:05.153Z,54.40
2023-05-14T05:57:32.062Z,54.50
2023-05-14T05:59:59.819Z,54.70
2023-05-14T06:02:26.666Z,54.80
2023-05-14T06:04:53.513Z,54.70
2023-05-14T06:07:20.206Z,55.40
2023-05-14T06:09:46.849Z,55.40
2023-05-14T06:12:13.554Z,55.50
2023-05-14T06:14:40.249Z,55.30
2023-05-14T06:17:07.575Z,55.50
2023-05-14T06:19:34.342Z,55.70
2023-05-14T06:22:01.009Z,55.70
2023-05-14T06:24:28.726Z,55.60
2023-05-14T06:26:55.552Z,55.60
2023-05-14T06:29:22.261Z,55.90
2023-05-14T06:31:49.041Z,55.90
2023-05-14T06:34:15.806Z,55.80
2023-05-14T06:36:42.463Z,56.00
2023-05-14T06:39:09.885Z,56.40
2023-05-14T06:41:37.655Z,56.70
2023-05-14T06:44:04.551Z,56.50
2023-05-14T06:46:31.277Z,56.90
2023-05-14T06:48:59.556Z,57.00
2023-05-14T06:51:26.328Z,57.40
2023-05-14T06:53:54.240Z,58.70
2023-05-14T06:56:22.008Z,57.40
2023-05-14T06:58:48.932Z,57.50
2023-05-14T07:01:16.806Z,57.30
2023-05-14T07:03:43.529Z,57.20
2023-05-14T07:06:13.097Z,57.20
2023-05-14T07:08:40.828Z,57.30
2023-05-14T07:11:07.520Z,57.40
2023-05-14T07:13:34.195Z,57.50
2023-05-14T07:16:00.922Z,57.60
2023-05-14T07:18:27.649Z,57.20
2023-05-14T07:20:54.462Z,57.50
2023-05-14T07:23:21.175Z,57.20
2023-05-14T07:25:47.942Z,57.30
2023-05-14T07:28:14.635Z,57.20
2023-05-14T07:30:41.319Z,57.20
2023-05-14T07:33:08.122Z,57.90
2023-05-14T07:35:34.845Z,57.70
2023-05-14T07:38:01.921Z,57.60
2023-05-14T07:40:32.793Z,57.90
2023-05-14T07:42:59.513Z,57.80
2023-05-14T07:45:26.300Z,58.10
2023-05-14T07:47:53.315Z,57.30
2023-05-14T07:50:20.192Z,57.20
2023-05-14T07:52:47.944Z,57.30
2023-05-14T07:55:15.037Z,57.60
2023-05-14T07:57:41.813Z,57.80
2023-05-14T08:00:09.229Z,58.10
2023-05-14T08:02:36.069Z,57.90
2023-05-14T08:05:05.080Z,57.90
2023-05-14T08:07:33.665Z,57.70
2023-05-14T08:10:00.557Z,57.40
2023-05-14T08:12:27.319Z,57.50
2023-05-14T08:14:54.182Z,57.90
2023-05-14T08:17:21.012Z,57.20
2023-05-14T08:19:47.726Z,56.40
2023-05-14T08:22:14.463Z,56.50
2023-05-14T08:24:43.009Z,56.70
2023-05-14T08:27:09.875Z,56.60
2023-05-14T08:29:36.980Z,59.30
2023-05-14T08:32:15.445Z,56.90
2023-05-14T08:34:49.131Z,58.50
2023-05-14T08:37:15.908Z,58.50
2023-05-14T08:39:42.638Z,58.00
2023-05-14T08:42:12.876Z,58.50
2023-05-14T08:44:48.357Z,57.40
2023-05-14T08:47:17.501Z,57.80
2023-05-14T08:49:52.423Z,57.40
2023-05-14T08:52:22.237Z,56.40
2023-05-14T08:54:53.588Z,57.50
2023-05-14T08:57:23.757Z,56.50
2023-05-14T08:59:51.329Z,56.70
2023-05-14T09:02:31.279Z,56.60
2023-05-14T09:05:00.017Z,56.50
2023-05-14T09:07:27.024Z,56.90
2023-05-14T09:09:54.941Z,56.90
2023-05-14T09:12:22.306Z,56.40
2023-05-14T09:14:50.372Z,56.60
2023-05-14T09:17:18.202Z,56.90
2023-05-14T09:19:48.989Z,57.10
2023-05-14T09:22:17.619Z,56.90
2023-05-14T09:24:44.855Z,56.70
2023-05-14T09:27:21.364Z,56.60
2023-05-14T09:29:48.613Z,56.40
2023-05-14T09:32:15.548Z,56.70
2023-05-14T09:34:44.326Z,57.00
2023-05-14T09:37:11.086Z,56.80
2023-05-14T09:39:38.881Z,57.20
2023-05-14T09:42:06.063Z,57.00
2023-05-14T09:44:32.946Z,57.50
2023-05-14T09:46:59.662Z,57.50
2023-05-14T09:49:26.446Z,57.70
2023-05-14T09:51:53.164Z,57.90
2023-05-14T09:54:20.138Z,58.30
2023-05-14T09:56:46.815Z,57.10
2023-05-14T09:59:13.590Z,57.40
2023-05-14T10:01:43.594Z,57.20
2023-05-14T10:04:11.989Z,57.70
2023-05-14T10:06:39.856Z,57.30
2023-05-14T10:09:13.993Z,56.60
2023-05-14T10:11:43.840Z,56.50
2023-05-14T10:14:29.271Z,57.10
2023-05-14T10:16:58.968Z,57.00
2023-05-14T10:19:26.544Z,56.50
2023-05-14T10:21:57.496Z,56.40
2023-05-14T10:24:25.298Z,55.80
2023-05-14T10:26:52.372Z,56.80
2023-05-14T10:29:19.059Z,56.00
2023-05-14T10:31:56.393Z,56.50
2023-05-14T10:34:37.933Z,56.40
2023-05-14T10:37:06.757Z,56.90
2023-05-14T10:39:51.555Z,57.30
2023-05-14T10:42:31.366Z,57.40
2023-05-14T10:45:05.733Z,56.40
2023-05-14T10:47:33.127Z,56.60
2023-05-14T10:50:03.199Z,57.00
2023-05-14T10:52:30.977Z,56.40
2023-05-14T10:55:03.797Z,55.80
2023-05-14T10:57:32.209Z,56.20
2023-05-14T11:00:01.134Z,55.90
2023-05-14T11:02:33.620Z,56.50
2023-05-14T11:05:05.348Z,57.10
2023-05-14T11:07:40.195Z,56.40
2023-05-14T11:10:08.352Z,55.70
2023-05-14T11:12:36.529Z,56.20
2023-05-14T11:15:11.745Z,55.30
2023-05-14T11:17:40.635Z,55.60
2023-05-14T11:20:08.818Z,55.80
2023-05-14T11:22:36.941Z,55.60
2023-05-14T11:25:04.377Z,55.30
2023-05-14T11:27:34.064Z,55.40
2023-05-14T11:30:01.155Z,56.00
2023-05-14T11:32:28.197Z,56.40
2023-05-14T11:34:54.996Z,56.70
2023-05-14T11:37:21.669Z,56.00
2023-05-14T11:40:01.009Z,55.40
2023-05-14T11:42:27.808Z,55.00
2023-05-14T11:44:54.550Z,55.00
2023-05-14T11:47:22.384Z,55.00
2023-05-14T11:49:49.529Z,54.90
2023-05-14T11:52:19.452Z,55.50
2023-05-14T11:54:46.676Z,55.30
2023-05-14T11:57:19.984Z,55.30
2023-05-14T11:59:48.270Z,55.00
2023-05-14T12:02:17.444Z,56.00
2023-05-14T12:04:45.291Z,56.30
2023-05-14T12:07:15.049Z,56.10
2023-05-14T12:09:49.253Z,55.90
2023-05-14T12:12:19.881Z,55.90
2023-05-14T12:14:46.947Z,56.20
2023-05-14T12:17:21.447Z,56.10
2023-05-14T12:19:50.346Z,56.10
2023-05-14T12:22:19.314Z,55.60
2023-05-14T12:24:59.716Z,55.30
2023-05-14T12:27:28.479Z,55.50
2023-05-14T12:30:20.110Z,55.80
2023-05-14T12:32:52.899Z,55.40
2023-05-14T12:35:21.448Z,55.30
2023-05-14T12:37:48.193Z,55.60
2023-05-14T12:40:15.038Z,56.10
2023-05-14T12:42:41.770Z,56.20
2023-05-14T12:45:09.001Z,56.00
2023-05-14T12:47:36.799Z,55.90
2023-05-14T23:57:37.574Z,56.20
